Terminal Aerodrome Forecast
Issued by NWS Quad Cities IA IL

Home | Current Version | Previous Version | Text Only | Print | Product List | Glossary On
Versions: 1 2 3 4 5 6 7 8 9 10 11 12 13 14 15 16 17
000
FTUS43 KDVN 241300 AAA
TAFMLI
TAF AMD
KMLI 241332Z 2414/2512 VRB02KT 3/4SM BR OVC003
      TEMPO 2414/2415 1/2SM FG OVC002
     FM241500 18006KT 1SM BR OVC004
     FM241700 19009KT 6SM BR OVC015
     FM241800 20008KT P6SM BKN025
     FM250100 19005KT 4SM BR OVC010=

USA.gov is the U.S. government's official web portal to all federal, state and local government web resources and services.